sensor_id;sensor_type;location;lat;lon;timestamp;temperature;humidity
47226;DHT22;32965;64.142;-21.912;2023-08-06T00:00:59;12.70;99.90
47226;DHT22;32965;64.142;-21.912;2023-08-06T00:03:25;12.70;99.90
47226;DHT22;32965;64.142;-21.912;2023-08-06T00:05:50;12.70;99.90
47226;DHT22;32965;64.142;-21.912;2023-08-06T00:08:16;12.70;99.90
47226;DHT22;32965;64.142;-21.912;2023-08-06T00:10:42;12.60;99.90
47226;DHT22;32965;64.142;-21.912;2023-08-06T00:13:08;12.70;99.90
47226;DHT22;32965;64.142;-21.912;2023-08-06T00:15:33;12.70;99.90
47226;DHT22;32965;64.142;-21.912;2023-08-06T00:17:59;12.70;99.90
47226;DHT22;32965;64.142;-21.912;2023-08-06T00:20:25;12.60;99.90
47226;DHT22;32965;64.142;-21.912;2023-08-06T00:22:51;12.60;99.90
47226;DHT22;32965;64.142;-21.912;2023-08-06T00:25:17;12.60;99.90
47226;DHT22;32965;64.142;-21.912;2023-08-06T00:27:43;12.60;99.90
47226;DHT22;32965;64.142;-21.912;2023-08-06T00:30:09;12.60;99.90
47226;DHT22;32965;64.142;-21.912;2023-08-06T00:32:34;12.60;99.90
47226;DHT22;32965;64.142;-21.912;2023-08-06T00:35:00;12.60;99.90
47226;DHT22;32965;64.142;-21.912;2023-08-06T00:37:26;12.60;99.90
47226;DHT22;32965;64.142;-21.912;2023-08-06T00:39:52;12.60;99.90
47226;DHT22;32965;64.142;-21.912;2023-08-06T00:42:18;12.60;99.90
47226;DHT22;32965;64.142;-21.912;2023-08-06T00:44:46;12.60;99.90
47226;DHT22;32965;64.142;-21.912;2023-08-06T00:47:12;12.60;99.90
47226;DHT22;32965;64.142;-21.912;2023-08-06T00:49:39;12.60;99.90
47226;DHT22;32965;64.142;-21.912;2023-08-06T00:52:06;12.70;99.90
47226;DHT22;32965;64.142;-21.912;2023-08-06T00:54:34;12.70;99.90
47226;DHT22;32965;64.142;-21.912;2023-08-06T00:57:01;12.60;99.90
47226;DHT22;32965;64.142;-21.912;2023-08-06T00:59:28;12.60;99.90
47226;DHT22;32965;64.142;-21.912;2023-08-06T01:01:54;12.60;99.90
47226;DHT22;32965;64.142;-21.912;2023-08-06T01:04:20;12.60;99.90
47226;DHT22;32965;64.142;-21.912;2023-08-06T01:06:48;12.60;99.90
47226;DHT22;32965;64.142;-21.912;2023-08-06T01:14:56;12.60;99.90
47226;DHT22;32965;64.142;-21.912;2023-08-06T01:17:24;12.60;99.90
47226;DHT22;32965;64.142;-21.912;2023-08-06T01:19:52;12.60;99.90
47226;DHT22;32965;64.142;-21.912;2023-08-06T01:22:18;12.60;99.90
47226;DHT22;32965;64.142;-21.912;2023-08-06T01:24:47;12.60;99.90
47226;DHT22;32965;64.142;-21.912;2023-08-06T01:27:28;12.60;99.90
47226;DHT22;32965;64.142;-21.912;2023-08-06T01:30:14;12.70;99.90
47226;DHT22;32965;64.142;-21.912;2023-08-06T01:32:48;12.60;99.90
47226;DHT22;32965;64.142;-21.912;2023-08-06T01:35:16;12.60;99.90
47226;DHT22;32965;64.142;-21.912;2023-08-06T01:37:43;12.60;99.90
47226;DHT22;32965;64.142;-21.912;2023-08-06T01:40:13;12.60;99.90
47226;DHT22;32965;64.142;-21.912;2023-08-06T01:42:39;12.60;99.90
47226;DHT22;32965;64.142;-21.912;2023-08-06T01:45:07;12.60;99.90
47226;DHT22;32965;64.142;-21.912;2023-08-06T01:47:34;12.50;99.90
47226;DHT22;32965;64.142;-21.912;2023-08-06T01:49:59;12.50;99.90
47226;DHT22;32965;64.142;-21.912;2023-08-06T01:52:26;12.40;99.90
47226;DHT22;32965;64.142;-21.912;2023-08-06T01:54:52;12.30;99.90
47226;DHT22;32965;64.142;-21.912;2023-08-06T01:57:18;12.20;99.90
47226;DHT22;32965;64.142;-21.912;2023-08-06T01:59:43;12.20;99.90
47226;DHT22;32965;64.142;-21.912;2023-08-06T02:02:09;12.10;99.90
47226;DHT22;32965;64.142;-21.912;2023-08-06T02:04:35;12.10;99.90
47226;DHT22;32965;64.142;-21.912;2023-08-06T02:07:01;12.10;99.90
47226;DHT22;32965;64.142;-21.912;2023-08-06T02:09:27;12.10;99.90
47226;DHT22;32965;64.142;-21.912;2023-08-06T02:11:52;12.00;99.90
47226;DHT22;32965;64.142;-21.912;2023-08-06T02:14:18;12.10;99.90
47226;DHT22;32965;64.142;-21.912;2023-08-06T02:16:44;12.10;99.90
47226;DHT22;32965;64.142;-21.912;2023-08-06T02:19:10;12.10;99.90
47226;DHT22;32965;64.142;-21.912;2023-08-06T02:21:35;12.10;99.90
47226;DHT22;32965;64.142;-21.912;2023-08-06T02:24:02;12.10;99.90
47226;DHT22;32965;64.142;-21.912;2023-08-06T02:26:28;12.10;99.90
47226;DHT22;32965;64.142;-21.912;2023-08-06T02:28:53;12.20;99.90
47226;DHT22;32965;64.142;-21.912;2023-08-06T02:31:19;12.20;99.90
47226;DHT22;32965;64.142;-21.912;2023-08-06T02:33:45;12.20;99.90
47226;DHT22;32965;64.142;-21.912;2023-08-06T02:36:10;12.20;99.90
47226;DHT22;32965;64.142;-21.912;2023-08-06T02:38:36;12.20;99.90
47226;DHT22;32965;64.142;-21.912;2023-08-06T02:41:03;12.20;99.90
47226;DHT22;32965;64.142;-21.912;2023-08-06T02:43:29;12.10;99.90
47226;DHT22;32965;64.142;-21.912;2023-08-06T02:45:59;12.10;99.90
47226;DHT22;32965;64.142;-21.912;2023-08-06T02:48:25;12.10;99.90
47226;DHT22;32965;64.142;-21.912;2023-08-06T02:50:51;12.10;99.90
47226;DHT22;32965;64.142;-21.912;2023-08-06T02:53:17;12.10;99.90
47226;DHT22;32965;64.142;-21.912;2023-08-06T02:55:47;12.00;99.90
47226;DHT22;32965;64.142;-21.912;2023-08-06T02:58:14;12.00;99.90
47226;DHT22;32965;64.142;-21.912;2023-08-06T03:00:40;12.00;99.90
47226;DHT22;32965;64.142;-21.912;2023-08-06T03:03:06;12.00;99.90
47226;DHT22;32965;64.142;-21.912;2023-08-06T03:05:32;12.00;99.90
47226;DHT22;32965;64.142;-21.912;2023-08-06T03:07:57;12.00;99.90
47226;DHT22;32965;64.142;-21.912;2023-08-06T03:10:23;12.00;99.90
47226;DHT22;32965;64.142;-21.912;2023-08-06T03:12:49;12.00;99.90
47226;DHT22;32965;64.142;-21.912;2023-08-06T03:15:15;12.00;99.90
47226;DHT22;32965;64.142;-21.912;2023-08-06T03:17:40;12.00;99.90
47226;DHT22;32965;64.142;-21.912;2023-08-06T03:20:06;12.00;99.90
47226;DHT22;32965;64.142;-21.912;2023-08-06T03:22:33;12.10;99.90
47226;DHT22;32965;64.142;-21.912;2023-08-06T03:24:59;12.10;99.90
47226;DHT22;32965;64.142;-21.912;2023-08-06T03:27:25;12.10;99.90
47226;DHT22;32965;64.142;-21.912;2023-08-06T03:29:51;12.10;99.90
47226;DHT22;32965;64.142;-21.912;2023-08-06T03:32:16;12.10;99.90
47226;DHT22;32965;64.142;-21.912;2023-08-06T03:34:42;12.10;99.90
47226;DHT22;32965;64.142;-21.912;2023-08-06T03:37:08;12.10;99.90
47226;DHT22;32965;64.142;-21.912;2023-08-06T03:39:34;12.10;99.90
47226;DHT22;32965;64.142;-21.912;2023-08-06T03:42:00;12.10;99.90
47226;DHT22;32965;64.142;-21.912;2023-08-06T03:44:26;12.10;99.90
47226;DHT22;32965;64.142;-21.912;2023-08-06T03:46:53;12.10;99.90
47226;DHT22;32965;64.142;-21.912;2023-08-06T03:49:19;12.00;99.90
47226;DHT22;32965;64.142;-21.912;2023-08-06T03:51:45;12.00;99.90
47226;DHT22;32965;64.142;-21.912;2023-08-06T03:54:11;12.00;99.90
47226;DHT22;32965;64.142;-21.912;2023-08-06T03:56:37;12.00;99.90
47226;DHT22;32965;64.142;-21.912;2023-08-06T03:59:03;12.00;99.90
47226;DHT22;32965;64.142;-21.912;2023-08-06T04:01:28;12.00;99.90
47226;DHT22;32965;64.142;-21.912;2023-08-06T04:03:54;12.00;99.90
47226;DHT22;32965;64.142;-21.912;2023-08-06T04:06:20;12.00;99.90
47226;DHT22;32965;64.142;-21.912;2023-08-06T04:08:46;12.00;99.90
47226;DHT22;32965;64.142;-21.912;2023-08-06T04:11:11;12.00;99.90
47226;DHT22;32965;64.142;-21.912;2023-08-06T04:13:38;12.00;99.90
47226;DHT22;32965;64.142;-21.912;2023-08-06T04:16:07;12.00;99.90
47226;DHT22;32965;64.142;-21.912;2023-08-06T04:18:33;12.00;99.90
47226;DHT22;32965;64.142;-21.912;2023-08-06T04:20:58;12.00;99.90
47226;DHT22;32965;64.142;-21.912;2023-08-06T04:23:24;12.10;99.90
47226;DHT22;32965;64.142;-21.912;2023-08-06T04:25:50;12.10;99.90
47226;DHT22;32965;64.142;-21.912;2023-08-06T04:28:16;12.10;99.90
47226;DHT22;32965;64.142;-21.912;2023-08-06T04:30:42;12.10;99.90
47226;DHT22;32965;64.142;-21.912;2023-08-06T04:33:07;12.10;99.90
47226;DHT22;32965;64.142;-21.912;2023-08-06T04:35:33;12.10;99.90
47226;DHT22;32965;64.142;-21.912;2023-08-06T04:37:59;12.10;99.90
47226;DHT22;32965;64.142;-21.912;2023-08-06T04:40:25;12.00;99.90
47226;DHT22;32965;64.142;-21.912;2023-08-06T04:42:50;12.00;99.90
47226;DHT22;32965;64.142;-21.912;2023-08-06T04:45:16;12.00;99.90
47226;DHT22;32965;64.142;-21.912;2023-08-06T04:47:42;11.90;99.90
47226;DHT22;32965;64.142;-21.912;2023-08-06T04:50:08;11.90;99.90
47226;DHT22;32965;64.142;-21.912;2023-08-06T04:52:33;11.90;99.90
47226;DHT22;32965;64.142;-21.912;2023-08-06T04:54:59;11.90;99.90
47226;DHT22;32965;64.142;-21.912;2023-08-06T04:57:25;11.90;99.90
47226;DHT22;32965;64.142;-21.912;2023-08-06T04:59:51;11.90;99.90
47226;DHT22;32965;64.142;-21.912;2023-08-06T05:02:17;11.90;99.90
47226;DHT22;32965;64.142;-21.912;2023-08-06T05:04:42;11.90;99.90
47226;DHT22;32965;64.142;-21.912;2023-08-06T05:07:10;11.90;99.90
47226;DHT22;32965;64.142;-21.912;2023-08-06T05:09:35;12.00;99.90
47226;DHT22;32965;64.142;-21.912;2023-08-06T05:12:01;11.90;99.90
47226;DHT22;32965;64.142;-21.912;2023-08-06T05:14:28;12.00;99.90
47226;DHT22;32965;64.142;-21.912;2023-08-06T05:16:53;12.00;99.90
47226;DHT22;32965;64.142;-21.912;2023-08-06T05:19:19;11.90;99.90
47226;DHT22;32965;64.142;-21.912;2023-08-06T05:21:45;11.90;99.90
47226;DHT22;32965;64.142;-21.912;2023-08-06T05:24:11;11.90;99.90
47226;DHT22;32965;64.142;-21.912;2023-08-06T05:26:37;11.90;99.90
47226;DHT22;32965;64.142;-21.912;2023-08-06T05:29:03;11.90;99.90
47226;DHT22;32965;64.142;-21.912;2023-08-06T05:31:29;12.00;99.90
47226;DHT22;32965;64.142;-21.912;2023-08-06T05:33:55;12.00;99.90
47226;DHT22;32965;64.142;-21.912;2023-08-06T05:36:20;12.10;99.90
47226;DHT22;32965;64.142;-21.912;2023-08-06T05:38:47;12.10;99.90
47226;DHT22;32965;64.142;-21.912;2023-08-06T05:41:13;12.10;99.90
47226;DHT22;32965;64.142;-21.912;2023-08-06T05:43:39;12.10;99.90
47226;DHT22;32965;64.142;-21.912;2023-08-06T05:46:05;12.10;99.90
47226;DHT22;32965;64.142;-21.912;2023-08-06T05:48:30;12.20;99.90
47226;DHT22;32965;64.142;-21.912;2023-08-06T05:50:57;12.20;99.90
47226;DHT22;32965;64.142;-21.912;2023-08-06T05:53:24;12.20;99.90
47226;DHT22;32965;64.142;-21.912;2023-08-06T05:55:50;12.30;99.90
47226;DHT22;32965;64.142;-21.912;2023-08-06T05:58:16;12.30;99.90
47226;DHT22;32965;64.142;-21.912;2023-08-06T06:00:42;12.30;99.90
47226;DHT22;32965;64.142;-21.912;2023-08-06T06:03:08;12.30;99.90
47226;DHT22;32965;64.142;-21.912;2023-08-06T06:05:33;12.40;99.90
47226;DHT22;32965;64.142;-21.912;2023-08-06T06:07:59;12.30;99.90
47226;DHT22;32965;64.142;-21.912;2023-08-06T06:10:25;12.40;99.90
47226;DHT22;32965;64.142;-21.912;2023-08-06T06:12:51;12.40;99.90
47226;DHT22;32965;64.142;-21.912;2023-08-06T06:15:16;12.40;99.90
47226;DHT22;32965;64.142;-21.912;2023-08-06T06:17:42;12.40;99.90
47226;DHT22;32965;64.142;-21.912;2023-08-06T06:20:08;12.40;99.90
47226;DHT22;32965;64.142;-21.912;2023-08-06T06:22:34;12.50;99.90
47226;DHT22;32965;64.142;-21.912;2023-08-06T06:25:00;12.50;99.90
47226;DHT22;32965;64.142;-21.912;2023-08-06T06:27:25;12.50;99.90
47226;DHT22;32965;64.142;-21.912;2023-08-06T06:29:51;12.50;99.90
47226;DHT22;32965;64.142;-21.912;2023-08-06T06:32:18;12.50;99.90
47226;DHT22;32965;64.142;-21.912;2023-08-06T06:34:43;12.50;99.90
47226;DHT22;32965;64.142;-21.912;2023-08-06T06:37:09;12.50;99.90
47226;DHT22;32965;64.142;-21.912;2023-08-06T06:39:35;12.50;99.90
47226;DHT22;32965;64.142;-21.912;2023-08-06T06:42:01;12.50;99.90
47226;DHT22;32965;64.142;-21.912;2023-08-06T06:44:26;12.40;99.90
47226;DHT22;32965;64.142;-21.912;2023-08-06T06:46:52;12.40;99.90
47226;DHT22;32965;64.142;-21.912;2023-08-06T06:49:18;12.40;99.90
47226;DHT22;32965;64.142;-21.912;2023-08-06T06:51:44;12.40;99.90
47226;DHT22;32965;64.142;-21.912;2023-08-06T06:54:09;12.40;99.90
47226;DHT22;32965;64.142;-21.912;2023-08-06T06:56:35;12.40;99.90
47226;DHT22;32965;64.142;-21.912;2023-08-06T06:59:01;12.30;99.90
47226;DHT22;32965;64.142;-21.912;2023-08-06T07:01:27;12.30;99.90
47226;DHT22;32965;64.142;-21.912;2023-08-06T07:03:53;12.30;99.90
47226;DHT22;32965;64.142;-21.912;2023-08-06T07:06:19;12.40;99.90
47226;DHT22;32965;64.142;-21.912;2023-08-06T07:08:45;12.40;99.90
47226;DHT22;32965;64.142;-21.912;2023-08-06T07:11:11;12.30;99.90
47226;DHT22;32965;64.142;-21.912;2023-08-06T07:13:37;12.40;99.90
47226;DHT22;32965;64.142;-21.912;2023-08-06T07:16:02;12.40;99.90
47226;DHT22;32965;64.142;-21.912;2023-08-06T07:18:29;12.40;99.90
47226;DHT22;32965;64.142;-21.912;2023-08-06T07:20:55;12.40;99.90
47226;DHT22;32965;64.142;-21.912;2023-08-06T07:23:22;12.40;99.90
47226;DHT22;32965;64.142;-21.912;2023-08-06T07:25:48;12.50;99.90
47226;DHT22;32965;64.142;-21.912;2023-08-06T07:28:14;12.50;99.90
47226;DHT22;32965;64.142;-21.912;2023-08-06T07:30:40;12.60;99.90
47226;DHT22;32965;64.142;-21.912;2023-08-06T07:33:33;12.60;99.90
47226;DHT22;32965;64.142;-21.912;2023-08-06T07:35:59;12.60;99.90
47226;DHT22;32965;64.142;-21.912;2023-08-06T07:38:37;12.60;99.90
47226;DHT22;32965;64.142;-21.912;2023-08-06T07:41:04;12.60;99.90
47226;DHT22;32965;64.142;-21.912;2023-08-06T07:43:31;12.60;99.90
47226;DHT22;32965;64.142;-21.912;2023-08-06T07:46:09;12.60;99.90
47226;DHT22;32965;64.142;-21.912;2023-08-06T07:48:35;12.60;99.90
47226;DHT22;32965;64.142;-21.912;2023-08-06T07:51:00;12.60;99.90
47226;DHT22;32965;64.142;-21.912;2023-08-06T07:53:33;12.60;99.90
47226;DHT22;32965;64.142;-21.912;2023-08-06T07:55:59;12.70;99.90
47226;DHT22;32965;64.142;-21.912;2023-08-06T07:58:54;12.70;99.90
47226;DHT22;32965;64.142;-21.912;2023-08-06T08:01:20;12.70;99.90
47226;DHT22;32965;64.142;-21.912;2023-08-06T08:03:48;12.70;99.90
47226;DHT22;32965;64.142;-21.912;2023-08-06T08:06:13;12.80;99.90
47226;DHT22;32965;64.142;-21.912;2023-08-06T08:11:52;12.90;99.90
47226;DHT22;32965;64.142;-21.912;2023-08-06T08:14:18;12.90;99.90
47226;DHT22;32965;64.142;-21.912;2023-08-06T08:16:44;13.00;99.90
47226;DHT22;32965;64.142;-21.912;2023-08-06T08:19:10;13.00;99.90
47226;DHT22;32965;64.142;-21.912;2023-08-06T08:21:36;13.10;99.90
47226;DHT22;32965;64.142;-21.912;2023-08-06T08:24:03;13.10;99.90
47226;DHT22;32965;64.142;-21.912;2023-08-06T08:26:29;13.10;99.90
47226;DHT22;32965;64.142;-21.912;2023-08-06T08:28:56;13.00;99.90
47226;DHT22;32965;64.142;-21.912;2023-08-06T08:31:22;13.10;99.90
47226;DHT22;32965;64.142;-21.912;2023-08-06T08:33:48;13.10;99.90
47226;DHT22;32965;64.142;-21.912;2023-08-06T08:36:14;13.20;99.90
47226;DHT22;32965;64.142;-21.912;2023-08-06T08:38:39;13.20;99.90
47226;DHT22;32965;64.142;-21.912;2023-08-06T08:41:05;13.10;99.90
47226;DHT22;32965;64.142;-21.912;2023-08-06T08:43:32;13.20;99.90
47226;DHT22;32965;64.142;-21.912;2023-08-06T08:45:58;13.20;99.90
47226;DHT22;32965;64.142;-21.912;2023-08-06T08:48:25;13.20;99.90
47226;DHT22;32965;64.142;-21.912;2023-08-06T08:50:53;13.20;99.90
47226;DHT22;32965;64.142;-21.912;2023-08-06T08:53:20;13.20;99.90
47226;DHT22;32965;64.142;-21.912;2023-08-06T08:55:48;13.10;99.90
47226;DHT22;32965;64.142;-21.912;2023-08-06T08:58:15;13.10;99.90
47226;DHT22;32965;64.142;-21.912;2023-08-06T09:00:46;13.10;99.90
47226;DHT22;32965;64.142;-21.912;2023-08-06T09:03:13;13.00;99.90
47226;DHT22;32965;64.142;-21.912;2023-08-06T09:05:43;13.00;99.90
47226;DHT22;32965;64.142;-21.912;2023-08-06T09:08:11;12.90;99.90
47226;DHT22;32965;64.142;-21.912;2023-08-06T09:10:41;12.90;99.90
47226;DHT22;32965;64.142;-21.912;2023-08-06T09:13:08;12.90;99.90
47226;DHT22;32965;64.142;-21.912;2023-08-06T09:15:34;12.80;99.90
47226;DHT22;32965;64.142;-21.912;2023-08-06T09:18:00;12.70;99.90
47226;DHT22;32965;64.142;-21.912;2023-08-06T09:20:26;12.80;99.90
47226;DHT22;32965;64.142;-21.912;2023-08-06T09:22:55;12.80;99.90
47226;DHT22;32965;64.142;-21.912;2023-08-06T09:25:22;12.90;99.90
47226;DHT22;32965;64.142;-21.912;2023-08-06T09:27:51;12.90;99.90
47226;DHT22;32965;64.142;-21.912;2023-08-06T09:30:37;13.00;99.90
47226;DHT22;32965;64.142;-21.912;2023-08-06T09:33:08;13.10;99.90
47226;DHT22;32965;64.142;-21.912;2023-08-06T09:35:39;13.10;99.90
47226;DHT22;32965;64.142;-21.912;2023-08-06T09:38:09;13.20;99.90
47226;DHT22;32965;64.142;-21.912;2023-08-06T09:40:36;13.30;99.90
47226;DHT22;32965;64.142;-21.912;2023-08-06T09:43:02;13.40;99.90
47226;DHT22;32965;64.142;-21.912;2023-08-06T09:45:33;13.50;99.90
47226;DHT22;32965;64.142;-21.912;2023-08-06T09:48:09;13.60;99.90
47226;DHT22;32965;64.142;-21.912;2023-08-06T09:50:37;13.70;99.90
47226;DHT22;32965;64.142;-21.912;2023-08-06T09:53:06;13.80;99.90
47226;DHT22;32965;64.142;-21.912;2023-08-06T09:55:34;13.80;99.90
47226;DHT22;32965;64.142;-21.912;2023-08-06T09:58:00;13.90;99.90
47226;DHT22;32965;64.142;-21.912;2023-08-06T10:00:26;14.00;99.90
47226;DHT22;32965;64.142;-21.912;2023-08-06T10:02:54;14.00;99.90
47226;DHT22;32965;64.142;-21.912;2023-08-06T10:05:22;14.00;99.90
47226;DHT22;32965;64.142;-21.912;2023-08-06T10:07:49;14.00;99.90
47226;DHT22;32965;64.142;-21.912;2023-08-06T10:10:18;14.00;99.90
47226;DHT22;32965;64.142;-21.912;2023-08-06T10:12:50;14.00;99.90
47226;DHT22;32965;64.142;-21.912;2023-08-06T10:15:24;13.90;99.90
47226;DHT22;32965;64.142;-21.912;2023-08-06T10:17:52;13.90;99.90
47226;DHT22;32965;64.142;-21.912;2023-08-06T10:20:32;13.80;99.90
47226;DHT22;32965;64.142;-21.912;2023-08-06T10:23:03;13.80;99.90
47226;DHT22;32965;64.142;-21.912;2023-08-06T10:28:38;13.70;99.90
47226;DHT22;32965;64.142;-21.912;2023-08-06T10:31:04;13.60;99.90
47226;DHT22;32965;64.142;-21.912;2023-08-06T10:33:47;13.70;99.90
47226;DHT22;32965;64.142;-21.912;2023-08-06T10:36:14;13.70;99.90
47226;DHT22;32965;64.142;-21.912;2023-08-06T10:38:50;13.60;99.90
47226;DHT22;32965;64.142;-21.912;2023-08-06T10:41:27;13.60;99.90
47226;DHT22;32965;64.142;-21.912;2023-08-06T10:44:05;13.60;99.90
47226;DHT22;32965;64.142;-21.912;2023-08-06T10:46:33;13.70;99.90
47226;DHT22;32965;64.142;-21.912;2023-08-06T10:48:59;13.70;99.90
47226;DHT22;32965;64.142;-21.912;2023-08-06T10:51:25;13.80;99.90
47226;DHT22;32965;64.142;-21.912;2023-08-06T10:53:51;13.70;99.90
47226;DHT22;32965;64.142;-21.912;2023-08-06T10:56:18;13.60;99.90
47226;DHT22;32965;64.142;-21.912;2023-08-06T10:58:46;13.50;99.90
47226;DHT22;32965;64.142;-21.912;2023-08-06T11:01:12;13.50;99.90
47226;DHT22;32965;64.142;-21.912;2023-08-06T11:03:39;13.50;99.90
47226;DHT22;32965;64.142;-21.912;2023-08-06T11:06:07;13.50;99.90
47226;DHT22;32965;64.142;-21.912;2023-08-06T11:08:35;13.40;99.90
47226;DHT22;32965;64.142;-21.912;2023-08-06T11:11:11;13.30;99.90
47226;DHT22;32965;64.142;-21.912;2023-08-06T11:13:42;13.10;99.90
47226;DHT22;32965;64.142;-21.912;2023-08-06T11:16:09;13.10;99.90
47226;DHT22;32965;64.142;-21.912;2023-08-06T11:18:35;12.90;99.90
47226;DHT22;32965;64.142;-21.912;2023-08-06T11:21:02;12.70;99.90
47226;DHT22;32965;64.142;-21.912;2023-08-06T11:23:28;12.60;99.90
47226;DHT22;32965;64.142;-21.912;2023-08-06T11:25:57;12.60;99.90
47226;DHT22;32965;64.142;-21.912;2023-08-06T11:28:24;12.40;99.90
47226;DHT22;32965;64.142;-21.912;2023-08-06T11:30:51;12.30;99.90
47226;DHT22;32965;64.142;-21.912;2023-08-06T11:33:26;12.30;99.90
47226;DHT22;32965;64.142;-21.912;2023-08-06T11:35:54;12.30;99.90
47226;DHT22;32965;64.142;-21.912;2023-08-06T11:38:36;12.30;99.90
47226;DHT22;32965;64.142;-21.912;2023-08-06T11:41:02;12.30;99.90
47226;DHT22;32965;64.142;-21.912;2023-08-06T11:43:30;12.20;99.90
47226;DHT22;32965;64.142;-21.912;2023-08-06T11:45:56;12.20;99.90
47226;DHT22;32965;64.142;-21.912;2023-08-06T11:48:22;12.20;99.90
47226;DHT22;32965;64.142;-21.912;2023-08-06T11:50:48;12.30;99.90
47226;DHT22;32965;64.142;-21.912;2023-08-06T11:53:14;12.20;99.90
47226;DHT22;32965;64.142;-21.912;2023-08-06T11:55:41;12.20;99.90
47226;DHT22;32965;64.142;-21.912;2023-08-06T11:58:10;12.20;99.90
47226;DHT22;32965;64.142;-21.912;2023-08-06T12:00:37;12.20;99.90
47226;DHT22;32965;64.142;-21.912;2023-08-06T12:03:05;12.10;99.90
47226;DHT22;32965;64.142;-21.912;2023-08-06T12:05:37;12.10;99.90
47226;DHT22;32965;64.142;-21.912;2023-08-06T12:08:04;12.30;99.90
47226;DHT22;32965;64.142;-21.912;2023-08-06T12:10:31;12.10;99.90
47226;DHT22;32965;64.142;-21.912;2023-08-06T12:12:57;12.30;99.90
47226;DHT22;32965;64.142;-21.912;2023-08-06T12:15:23;12.40;99.90
47226;DHT22;32965;64.142;-21.912;2023-08-06T12:17:50;12.40;99.90
47226;DHT22;32965;64.142;-21.912;2023-08-06T12:20:19;12.50;99.90
47226;DHT22;32965;64.142;-21.912;2023-08-06T12:22:45;12.60;99.90
47226;DHT22;32965;64.142;-21.912;2023-08-06T12:25:12;10.90;99.90
47226;DHT22;32965;64.142;-21.912;2023-08-06T12:27:40;12.40;99.90
47226;DHT22;32965;64.142;-21.912;2023-08-06T12:30:07;12.30;99.90
47226;DHT22;32965;64.142;-21.912;2023-08-06T12:32:33;12.30;99.90
47226;DHT22;32965;64.142;-21.912;2023-08-06T12:35:00;12.40;99.90
47226;DHT22;32965;64.142;-21.912;2023-08-06T12:37:35;12.50;99.90
47226;DHT22;32965;64.142;-21.912;2023-08-06T12:40:01;12.60;99.90
47226;DHT22;32965;64.142;-21.912;2023-08-06T12:42:27;12.70;99.90
47226;DHT22;32965;64.142;-21.912;2023-08-06T12:44:53;12.80;99.90
47226;DHT22;32965;64.142;-21.912;2023-08-06T12:47:19;12.70;99.90
47226;DHT22;32965;64.142;-21.912;2023-08-06T12:49:46;12.60;99.90
47226;DHT22;32965;64.142;-21.912;2023-08-06T12:52:12;12.50;99.90
47226;DHT22;32965;64.142;-21.912;2023-08-06T12:54:40;12.40;99.90
47226;DHT22;32965;64.142;-21.912;2023-08-06T12:57:06;12.40;99.90
47226;DHT22;32965;64.142;-21.912;2023-08-06T12:59:33;12.50;99.90
47226;DHT22;32965;64.142;-21.912;2023-08-06T13:01:59;12.50;99.90
47226;DHT22;32965;64.142;-21.912;2023-08-06T13:04:25;12.60;99.90
47226;DHT22;32965;64.142;-21.912;2023-08-06T13:06:51;12.50;99.90
47226;DHT22;32965;64.142;-21.912;2023-08-06T13:09:19;11.10;99.90
47226;DHT22;32965;64.142;-21.912;2023-08-06T13:11:45;12.50;99.90
47226;DHT22;32965;64.142;-21.912;2023-08-06T13:14:13;12.40;99.90
47226;DHT22;32965;64.142;-21.912;2023-08-06T13:16:41;12.30;99.90
47226;DHT22;32965;64.142;-21.912;2023-08-06T13:19:08;12.30;99.90
47226;DHT22;32965;64.142;-21.912;2023-08-06T13:24:06;12.30;99.90
47226;DHT22;32965;64.142;-21.912;2023-08-06T13:26:54;12.20;99.90
47226;DHT22;32965;64.142;-21.912;2023-08-06T13:29:20;12.20;99.90
47226;DHT22;32965;64.142;-21.912;2023-08-06T13:31:46;12.10;99.90
47226;DHT22;32965;64.142;-21.912;2023-08-06T13:34:11;12.10;99.90
47226;DHT22;32965;64.142;-21.912;2023-08-06T13:36:37;12.20;99.90
47226;DHT22;32965;64.142;-21.912;2023-08-06T13:39:04;12.20;99.90
47226;DHT22;32965;64.142;-21.912;2023-08-06T13:41:31;12.20;99.90
47226;DHT22;32965;64.142;-21.912;2023-08-06T13:43:56;12.00;99.90
47226;DHT22;32965;64.142;-21.912;2023-08-06T13:46:22;12.10;99.90
47226;DHT22;32965;64.142;-21.912;2023-08-06T13:48:48;12.10;99.90
47226;DHT22;32965;64.142;-21.912;2023-08-06T13:51:17;12.10;99.90
47226;DHT22;32965;64.142;-21.912;2023-08-06T13:53:44;12.00;99.90
47226;DHT22;32965;64.142;-21.912;2023-08-06T13:56:10;11.90;99.90
47226;DHT22;32965;64.142;-21.912;2023-08-06T13:58:37;11.80;99.90
47226;DHT22;32965;64.142;-21.912;2023-08-06T14:01:03;11.80;99.90
47226;DHT22;32965;64.142;-21.912;2023-08-06T14:03:29;11.70;99.90
47226;DHT22;32965;64.142;-21.912;2023-08-06T14:05:55;11.70;99.90
47226;DHT22;32965;64.142;-21.912;2023-08-06T14:08:22;11.70;99.90
47226;DHT22;32965;64.142;-21.912;2023-08-06T14:10:54;11.70;99.90
47226;DHT22;32965;64.142;-21.912;2023-08-06T14:13:21;11.90;99.90
47226;DHT22;32965;64.142;-21.912;2023-08-06T14:15:47;11.90;99.90
47226;DHT22;32965;64.142;-21.912;2023-08-06T14:18:14;12.10;99.90
47226;DHT22;32965;64.142;-21.912;2023-08-06T14:20:43;12.20;99.90
47226;DHT22;32965;64.142;-21.912;2023-08-06T14:23:09;12.30;99.90
47226;DHT22;32965;64.142;-21.912;2023-08-06T14:25:36;12.30;99.90
47226;DHT22;32965;64.142;-21.912;2023-08-06T14:28:02;12.30;99.90
47226;DHT22;32965;64.142;-21.912;2023-08-06T14:30:28;12.30;99.90
47226;DHT22;32965;64.142;-21.912;2023-08-06T14:32:53;12.40;99.90
47226;DHT22;32965;64.142;-21.912;2023-08-06T14:35:19;12.40;99.90
47226;DHT22;32965;64.142;-21.912;2023-08-06T14:37:45;12.40;99.90
47226;DHT22;32965;64.142;-21.912;2023-08-06T14:40:11;12.50;99.90
47226;DHT22;32965;64.142;-21.912;2023-08-06T14:42:37;12.60;99.90
47226;DHT22;32965;64.142;-21.912;2023-08-06T14:45:03;12.60;99.90
47226;DHT22;32965;64.142;-21.912;2023-08-06T14:47:29;12.60;99.90
47226;DHT22;32965;64.142;-21.912;2023-08-06T14:50:00;12.70;99.90
47226;DHT22;32965;64.142;-21.912;2023-08-06T14:52:26;12.70;99.90
47226;DHT22;32965;64.142;-21.912;2023-08-06T14:54:52;12.80;99.90
47226;DHT22;32965;64.142;-21.912;2023-08-06T14:57:21;12.90;99.90
47226;DHT22;32965;64.142;-21.912;2023-08-06T14:59:47;12.90;99.90
47226;DHT22;32965;64.142;-21.912;2023-08-06T15:02:13;12.90;99.90
47226;DHT22;32965;64.142;-21.912;2023-08-06T15:04:39;12.80;99.90
47226;DHT22;32965;64.142;-21.912;2023-08-06T15:07:04;12.80;99.90
47226;DHT22;32965;64.142;-21.912;2023-08-06T15:09:30;12.80;99.90
47226;DHT22;32965;64.142;-21.912;2023-08-06T15:11:56;12.90;99.90
47226;DHT22;32965;64.142;-21.912;2023-08-06T15:14:22;12.90;99.90
47226;DHT22;32965;64.142;-21.912;2023-08-06T15:16:48;13.00;99.90